sensor_id;sensor_type;location;lat;lon;timestamp;pressure;altitude;pressure_sealevel;temperature;humidity
43420;BME280;29017;51.514;-0.178;2023-08-06T00:01:05;100761.34;;;15.20;90.70
43420;BME280;29017;51.514;-0.178;2023-08-06T00:03:32;100761.53;;;15.18;91.01
43420;BME280;29017;51.514;-0.178;2023-08-06T00:05:59;100765.91;;;15.11;90.12
43420;BME280;29017;51.514;-0.178;2023-08-06T00:08:26;100764.81;;;15.06;89.59
43420;BME280;29017;51.514;-0.178;2023-08-06T00:10:53;100768.13;;;15.08;89.99
43420;BME280;29017;51.514;-0.178;2023-08-06T00:13:20;100761.19;;;15.07;90.21
43420;BME280;29017;51.514;-0.178;2023-08-06T00:15:47;100769.28;;;15.05;90.47
43420;BME280;29017;51.514;-0.178;2023-08-06T00:18:14;100770.78;;;15.08;90.25
43420;BME280;29017;51.514;-0.178;2023-08-06T00:20:41;100781.16;;;15.09;89.02
43420;BME280;29017;51.514;-0.178;2023-08-06T00:23:08;100778.25;;;15.04;88.83
43420;BME280;29017;51.514;-0.178;2023-08-06T00:25:36;100781.81;;;14.96;89.25
43420;BME280;29017;51.514;-0.178;2023-08-06T00:28:03;100783.66;;;14.96;89.17
43420;BME280;29017;51.514;-0.178;2023-08-06T00:30:31;100801.53;;;14.94;88.92
43420;BME280;29017;51.514;-0.178;2023-08-06T00:32:58;100800.44;;;14.88;89.00
43420;BME280;29017;51.514;-0.178;2023-08-06T00:35:25;100802.47;;;14.86;89.27
43420;BME280;29017;51.514;-0.178;2023-08-06T00:37:52;100810.75;;;14.83;89.05
43420;BME280;29017;51.514;-0.178;2023-08-06T00:40:20;100819.63;;;14.76;88.74
43420;BME280;29017;51.514;-0.178;2023-08-06T00:42:48;100826.91;;;14.74;89.10
43420;BME280;29017;51.514;-0.178;2023-08-06T00:45:15;100818.97;;;14.74;88.91
43420;BME280;29017;51.514;-0.178;2023-08-06T00:47:42;100826.09;;;14.73;88.86
43420;BME280;29017;51.514;-0.178;2023-08-06T00:50:10;100829.41;;;14.75;90.09
43420;BME280;29017;51.514;-0.178;2023-08-06T00:52:37;100831.66;;;14.78;88.60
43420;BME280;29017;51.514;-0.178;2023-08-06T00:55:05;100835.22;;;14.71;88.94
43420;BME280;29017;51.514;-0.178;2023-08-06T00:57:32;100835.22;;;14.71;88.95
43420;BME280;29017;51.514;-0.178;2023-08-06T00:59:59;100838.88;;;14.70;89.07
43420;BME280;29017;51.514;-0.178;2023-08-06T01:02:27;100853.22;;;14.75;89.61
43420;BME280;29017;51.514;-0.178;2023-08-06T01:04:54;100843.47;;;14.76;88.50
43420;BME280;29017;51.514;-0.178;2023-08-06T01:10:23;100836.50;;;14.75;89.91
43420;BME280;29017;51.514;-0.178;2023-08-06T01:15:47;100849.59;;;14.76;88.52
43420;BME280;29017;51.514;-0.178;2023-08-06T01:18:16;100854.59;;;14.71;88.70
43420;BME280;29017;51.514;-0.178;2023-08-06T01:20:43;100861.06;;;14.69;88.51
43420;BME280;29017;51.514;-0.178;2023-08-06T01:23:10;100868.56;;;14.65;88.50
43420;BME280;29017;51.514;-0.178;2023-08-06T01:31:55;100866.59;;;14.59;89.34
43420;BME280;29017;51.514;-0.178;2023-08-06T01:34:28;100870.44;;;14.57;89.09
43420;BME280;29017;51.514;-0.178;2023-08-06T01:36:57;100880.84;;;14.58;89.18
43420;BME280;29017;51.514;-0.178;2023-08-06T01:39:26;100884.69;;;14.55;88.69
43420;BME280;29017;51.514;-0.178;2023-08-06T01:41:53;100879.56;;;14.54;88.78
43420;BME280;29017;51.514;-0.178;2023-08-06T01:44:20;100884.22;;;14.52;88.62
43420;BME280;29017;51.514;-0.178;2023-08-06T01:46:47;100887.03;;;14.50;89.28
43420;BME280;29017;51.514;-0.178;2023-08-06T01:49:14;100894.00;;;14.51;89.84
43420;BME280;29017;51.514;-0.178;2023-08-06T01:51:41;100896.28;;;14.54;90.32
43420;BME280;29017;51.514;-0.178;2023-08-06T01:54:08;100900.56;;;14.55;89.70
43420;BME280;29017;51.514;-0.178;2023-08-06T01:56:35;100904.06;;;14.56;89.53
43420;BME280;29017;51.514;-0.178;2023-08-06T01:59:02;100900.75;;;14.54;89.40
43420;BME280;29017;51.514;-0.178;2023-08-06T02:01:31;100904.22;;;14.54;89.36
43420;BME280;29017;51.514;-0.178;2023-08-06T02:03:58;100914.81;;;14.54;88.67
43420;BME280;29017;51.514;-0.178;2023-08-06T02:06:25;100908.22;;;14.50;89.04
43420;BME280;29017;51.514;-0.178;2023-08-06T02:08:52;100915.19;;;14.51;89.35
43420;BME280;29017;51.514;-0.178;2023-08-06T02:11:18;100910.03;;;14.50;89.89
43420;BME280;29017;51.514;-0.178;2023-08-06T02:13:46;100905.56;;;14.50;89.75
43420;BME280;29017;51.514;-0.178;2023-08-06T02:16:13;100909.22;;;14.49;89.32
43420;BME280;29017;51.514;-0.178;2023-08-06T02:18:40;100910.56;;;14.45;89.07
43420;BME280;29017;51.514;-0.178;2023-08-06T02:21:07;100919.34;;;14.46;89.73
43420;BME280;29017;51.514;-0.178;2023-08-06T02:23:34;100925.16;;;14.41;89.13
43420;BME280;29017;51.514;-0.178;2023-08-06T02:26:02;100920.88;;;14.40;89.35
43420;BME280;29017;51.514;-0.178;2023-08-06T02:28:30;100919.22;;;14.39;89.99
43420;BME280;29017;51.514;-0.178;2023-08-06T02:30:58;100929.81;;;14.39;89.99
43420;BME280;29017;51.514;-0.178;2023-08-06T02:33:26;100936.75;;;14.40;89.13
43420;BME280;29017;51.514;-0.178;2023-08-06T02:35:59;100932.63;;;14.38;89.47
43420;BME280;29017;51.514;-0.178;2023-08-06T02:38:27;100935.59;;;14.35;89.33
43420;BME280;29017;51.514;-0.178;2023-08-06T02:40:54;100937.56;;;14.33;89.20
43420;BME280;29017;51.514;-0.178;2023-08-06T02:43:21;100937.13;;;14.37;90.59
43420;BME280;29017;51.514;-0.178;2023-08-06T02:45:48;100929.31;;;14.36;89.49
43420;BME280;29017;51.514;-0.178;2023-08-06T02:48:15;100936.59;;;14.34;88.96
43420;BME280;29017;51.514;-0.178;2023-08-06T02:50:42;100933.94;;;14.34;89.28
43420;BME280;29017;51.514;-0.178;2023-08-06T02:53:09;100926.00;;;14.34;89.79
43420;BME280;29017;51.514;-0.178;2023-08-06T02:55:36;100933.09;;;14.33;89.40
43420;BME280;29017;51.514;-0.178;2023-08-06T02:58:04;100931.81;;;14.37;89.24
43420;BME280;29017;51.514;-0.178;2023-08-06T03:00:31;100935.59;;;14.35;87.92
43420;BME280;29017;51.514;-0.178;2023-08-06T03:02:58;100941.72;;;14.35;88.32
43420;BME280;29017;51.514;-0.178;2023-08-06T03:05:25;100942.72;;;14.34;88.82
43420;BME280;29017;51.514;-0.178;2023-08-06T03:08:00;100940.22;;;14.33;88.66
43420;BME280;29017;51.514;-0.178;2023-08-06T03:10:27;100939.44;;;14.32;88.94
43420;BME280;29017;51.514;-0.178;2023-08-06T03:12:54;100934.94;;;14.33;89.03
43420;BME280;29017;51.514;-0.178;2023-08-06T03:15:21;100945.53;;;14.33;88.54
43420;BME280;29017;51.514;-0.178;2023-08-06T03:17:48;100948.00;;;14.34;88.88
43420;BME280;29017;51.514;-0.178;2023-08-06T03:20:15;100942.06;;;14.32;87.79
43420;BME280;29017;51.514;-0.178;2023-08-06T03:22:42;100946.88;;;14.29;88.08
43420;BME280;29017;51.514;-0.178;2023-08-06T03:25:09;100943.06;;;14.31;88.57
43420;BME280;29017;51.514;-0.178;2023-08-06T03:27:36;100943.91;;;14.32;87.74
43420;BME280;29017;51.514;-0.178;2023-08-06T03:30:03;100944.06;;;14.30;88.05
43420;BME280;29017;51.514;-0.178;2023-08-06T03:32:30;100946.72;;;14.30;87.61
43420;BME280;29017;51.514;-0.178;2023-08-06T03:34:57;100943.91;;;14.32;88.33
43420;BME280;29017;51.514;-0.178;2023-08-06T03:37:24;100951.00;;;14.31;87.50
43420;BME280;29017;51.514;-0.178;2023-08-06T03:39:51;100946.53;;;14.32;87.62
43420;BME280;29017;51.514;-0.178;2023-08-06T03:42:18;100950.03;;;14.32;88.06
43420;BME280;29017;51.514;-0.178;2023-08-06T03:44:45;100955.31;;;14.32;87.53
43420;BME280;29017;51.514;-0.178;2023-08-06T03:47:14;100951.63;;;14.33;86.11
43420;BME280;29017;51.514;-0.178;2023-08-06T03:49:41;100952.81;;;14.31;85.64
43420;BME280;29017;51.514;-0.178;2023-08-06T03:52:08;100955.81;;;14.28;85.58
43420;BME280;29017;51.514;-0.178;2023-08-06T03:54:35;100961.47;;;14.25;86.09
43420;BME280;29017;51.514;-0.178;2023-08-06T03:57:02;100954.88;;;14.21;86.38
43420;BME280;29017;51.514;-0.178;2023-08-06T03:59:29;100950.41;;;14.21;86.36
43420;BME280;29017;51.514;-0.178;2023-08-06T04:01:56;100961.63;;;14.23;86.42
43420;BME280;29017;51.514;-0.178;2023-08-06T04:04:23;100960.78;;;14.23;86.03
43420;BME280;29017;51.514;-0.178;2023-08-06T04:06:50;100962.44;;;14.24;86.53
43420;BME280;29017;51.514;-0.178;2023-08-06T04:09:17;100964.47;;;14.22;86.31
43420;BME280;29017;51.514;-0.178;2023-08-06T04:11:44;100968.94;;;14.21;86.21
43420;BME280;29017;51.514;-0.178;2023-08-06T04:14:11;100969.75;;;14.22;86.50
43420;BME280;29017;51.514;-0.178;2023-08-06T04:16:38;100978.69;;;14.21;86.67
43420;BME280;29017;51.514;-0.178;2023-08-06T04:19:05;100985.63;;;14.22;86.77
43420;BME280;29017;51.514;-0.178;2023-08-06T04:21:32;100983.63;;;14.24;87.10
43420;BME280;29017;51.514;-0.178;2023-08-06T04:23:59;100993.38;;;14.23;86.28
43420;BME280;29017;51.514;-0.178;2023-08-06T04:26:26;100984.44;;;14.24;86.98
43420;BME280;29017;51.514;-0.178;2023-08-06T04:28:53;100979.16;;;14.24;86.85
43420;BME280;29017;51.514;-0.178;2023-08-06T04:31:21;100996.03;;;14.23;86.87
43420;BME280;29017;51.514;-0.178;2023-08-06T04:33:48;100995.03;;;14.24;87.54
43420;BME280;29017;51.514;-0.178;2023-08-06T04:36:15;100997.84;;;14.23;88.09
43420;BME280;29017;51.514;-0.178;2023-08-06T04:38:42;100999.34;;;14.25;87.96
43420;BME280;29017;51.514;-0.178;2023-08-06T04:41:11;101004.47;;;14.27;88.06
43420;BME280;29017;51.514;-0.178;2023-08-06T04:43:38;101010.25;;;14.22;87.60
43420;BME280;29017;51.514;-0.178;2023-08-06T04:46:05;101008.28;;;14.24;87.50
43420;BME280;29017;51.514;-0.178;2023-08-06T04:48:33;101019.22;;;14.21;87.28
43420;BME280;29017;51.514;-0.178;2023-08-06T04:51:00;101017.56;;;14.20;87.61
43420;BME280;29017;51.514;-0.178;2023-08-06T04:53:27;101021.03;;;14.21;88.04
43420;BME280;29017;51.514;-0.178;2023-08-06T04:55:54;101021.03;;;14.21;88.51
43420;BME280;29017;51.514;-0.178;2023-08-06T04:58:21;101030.63;;;14.22;87.46
43420;BME280;29017;51.514;-0.178;2023-08-06T05:00:49;101026.31;;;14.21;87.62
43420;BME280;29017;51.514;-0.178;2023-08-06T05:03:16;101026.13;;;14.22;87.69
43420;BME280;29017;51.514;-0.178;2023-08-06T05:05:45;101037.53;;;14.23;87.63
43420;BME280;29017;51.514;-0.178;2023-08-06T05:08:16;101036.91;;;14.21;87.40
43420;BME280;29017;51.514;-0.178;2023-08-06T05:10:44;101040.91;;;14.17;87.22
43420;BME280;29017;51.514;-0.178;2023-08-06T05:13:12;101040.06;;;14.16;87.53
43420;BME280;29017;51.514;-0.178;2023-08-06T05:15:39;101046.19;;;14.17;87.60
43420;BME280;29017;51.514;-0.178;2023-08-06T05:18:09;101047.34;;;14.14;87.99
43420;BME280;29017;51.514;-0.178;2023-08-06T05:20:37;101047.50;;;14.12;88.14
43420;BME280;29017;51.514;-0.178;2023-08-06T05:23:05;101062.41;;;14.13;88.47
43420;BME280;29017;51.514;-0.178;2023-08-06T05:25:32;101055.13;;;14.16;88.45
43420;BME280;29017;51.514;-0.178;2023-08-06T05:28:06;101062.72;;;14.19;88.33
43420;BME280;29017;51.514;-0.178;2023-08-06T05:30:33;101061.41;;;14.14;87.54
43420;BME280;29017;51.514;-0.178;2023-08-06T05:33:00;101060.56;;;14.14;88.11
43420;BME280;29017;51.514;-0.178;2023-08-06T05:35:27;101072.00;;;14.14;88.75
43420;BME280;29017;51.514;-0.178;2023-08-06T05:38:01;101068.53;;;14.14;88.25
43420;BME280;29017;51.514;-0.178;2023-08-06T05:40:28;101073.16;;;14.12;88.23
43420;BME280;29017;51.514;-0.178;2023-08-06T05:42:55;101074.81;;;14.13;88.12
43420;BME280;29017;51.514;-0.178;2023-08-06T05:45:22;101080.09;;;14.13;87.84
43420;BME280;29017;51.514;-0.178;2023-08-06T05:47:49;101084.06;;;14.09;87.80
43420;BME280;29017;51.514;-0.178;2023-08-06T05:50:16;101085.75;;;14.10;87.79
43420;BME280;29017;51.514;-0.178;2023-08-06T05:52:44;101092.34;;;14.14;88.10
43420;BME280;29017;51.514;-0.178;2023-08-06T05:55:10;101095.47;;;14.18;88.21
43420;BME280;29017;51.514;-0.178;2023-08-06T05:57:38;101093.31;;;14.21;88.73
43420;BME280;29017;51.514;-0.178;2023-08-06T06:00:05;101094.31;;;14.20;88.38
43420;BME280;29017;51.514;-0.178;2023-08-06T06:02:33;101090.16;;;14.26;89.12
43420;BME280;29017;51.514;-0.178;2023-08-06T06:05:00;101092.47;;;14.29;87.83
43420;BME280;29017;51.514;-0.178;2023-08-06T06:07:27;101089.50;;;14.32;87.87
43420;BME280;29017;51.514;-0.178;2023-08-06T06:09:54;101098.91;;;14.34;88.73
43420;BME280;29017;51.514;-0.178;2023-08-06T06:12:21;101097.41;;;14.40;88.98
43420;BME280;29017;51.514;-0.178;2023-08-06T06:14:49;101104.03;;;14.44;87.81
43420;BME280;29017;51.514;-0.178;2023-08-06T06:17:16;101107.34;;;14.46;87.91
43420;BME280;29017;51.514;-0.178;2023-08-06T06:19:43;101103.34;;;14.50;88.76
43420;BME280;29017;51.514;-0.178;2023-08-06T06:22:10;101110.94;;;14.53;88.57
43420;BME280;29017;51.514;-0.178;2023-08-06T06:24:37;101111.13;;;14.51;87.85
43420;BME280;29017;51.514;-0.178;2023-08-06T06:27:04;101104.31;;;14.57;88.61
43420;BME280;29017;51.514;-0.178;2023-08-06T06:29:31;101110.25;;;14.59;87.15
43420;BME280;29017;51.514;-0.178;2023-08-06T06:31:58;101106.78;;;14.59;88.19
43420;BME280;29017;51.514;-0.178;2023-08-06T06:34:25;101114.19;;;14.63;88.94
43420;BME280;29017;51.514;-0.178;2023-08-06T06:36:52;101108.75;;;14.65;87.84
43420;BME280;29017;51.514;-0.178;2023-08-06T06:39:20;101108.88;;;14.71;87.05
43420;BME280;29017;51.514;-0.178;2023-08-06T06:41:47;101111.84;;;14.76;87.55
43420;BME280;29017;51.514;-0.178;2023-08-06T06:44:14;101119.28;;;14.81;88.08
43420;BME280;29017;51.514;-0.178;2023-08-06T06:46:42;101115.63;;;14.82;86.98
43420;BME280;29017;51.514;-0.178;2023-08-06T06:49:09;101122.75;;;14.81;87.58
43420;BME280;29017;51.514;-0.178;2023-08-06T06:51:36;101122.22;;;14.86;86.62
43420;BME280;29017;51.514;-0.178;2023-08-06T06:54:05;101115.75;;;14.88;86.97
43420;BME280;29017;51.514;-0.178;2023-08-06T06:56:32;101132.44;;;14.97;87.31
43420;BME280;29017;51.514;-0.178;2023-08-06T06:58:59;101128.91;;;15.05;87.71
43420;BME280;29017;51.514;-0.178;2023-08-06T07:01:26;101135.50;;;15.09;88.17
43420;BME280;29017;51.514;-0.178;2023-08-06T07:03:53;101140.78;;;15.17;86.55
43420;BME280;29017;51.514;-0.178;2023-08-06T07:06:21;101135.09;;;15.20;85.58
43420;BME280;29017;51.514;-0.178;2023-08-06T07:08:48;101134.47;;;15.18;85.21
43420;BME280;29017;51.514;-0.178;2023-08-06T07:11:15;101131.81;;;15.18;85.09
43420;BME280;29017;51.514;-0.178;2023-08-06T07:13:42;101131.00;;;15.17;84.49
43420;BME280;29017;51.514;-0.178;2023-08-06T07:16:09;101132.66;;;15.18;85.71
43420;BME280;29017;51.514;-0.178;2023-08-06T07:18:37;101134.78;;;15.23;86.01
43420;BME280;29017;51.514;-0.178;2023-08-06T07:21:04;101137.91;;;15.26;85.03
43420;BME280;29017;51.514;-0.178;2023-08-06T07:23:31;101134.88;;;15.29;85.12
43420;BME280;29017;51.514;-0.178;2023-08-06T07:25:58;101149.25;;;15.35;86.35
43420;BME280;29017;51.514;-0.178;2023-08-06T07:28:25;101144.91;;;15.42;85.50
43420;BME280;29017;51.514;-0.178;2023-08-06T07:30:52;101151.97;;;15.50;84.18
43420;BME280;29017;51.514;-0.178;2023-08-06T07:33:19;101160.47;;;15.53;84.17
43420;BME280;29017;51.514;-0.178;2023-08-06T07:35:46;101153.78;;;15.57;84.65
43420;BME280;29017;51.514;-0.178;2023-08-06T07:38:13;101160.06;;;15.64;85.37
43420;BME280;29017;51.514;-0.178;2023-08-06T07:40:40;101164.63;;;15.70;82.94
43420;BME280;29017;51.514;-0.178;2023-08-06T07:43:07;101173.06;;;15.74;80.65
43420;BME280;29017;51.514;-0.178;2023-08-06T07:45:34;101171.41;;;15.73;81.64
43420;BME280;29017;51.514;-0.178;2023-08-06T07:48:05;101170.72;;;15.79;82.70
43420;BME280;29017;51.514;-0.178;2023-08-06T07:50:33;101172.75;;;15.92;82.09
43420;BME280;29017;51.514;-0.178;2023-08-06T07:53:00;101168.28;;;16.07;82.68
43420;BME280;29017;51.514;-0.178;2023-08-06T07:55:27;101175.84;;;16.18;79.19
43420;BME280;29017;51.514;-0.178;2023-08-06T07:58:02;101177.06;;;16.30;79.38
43420;BME280;29017;51.514;-0.178;2023-08-06T08:00:32;101177.22;;;16.43;79.24
43420;BME280;29017;51.514;-0.178;2023-08-06T08:03:00;101173.59;;;16.74;76.13
43420;BME280;29017;51.514;-0.178;2023-08-06T08:05:27;101170.19;;;16.94;74.59
43420;BME280;29017;51.514;-0.178;2023-08-06T08:08:00;101183.16;;;17.19;73.32
43420;BME280;29017;51.514;-0.178;2023-08-06T08:10:27;101177.47;;;17.22;72.70
43420;BME280;29017;51.514;-0.178;2023-08-06T08:12:54;101180.50;;;17.19;71.77
43420;BME280;29017;51.514;-0.178;2023-08-06T08:15:21;101176.22;;;17.03;71.67
43420;BME280;29017;51.514;-0.178;2023-08-06T08:17:48;101182.81;;;17.07;72.10
43420;BME280;29017;51.514;-0.178;2023-08-06T08:20:16;101185.94;;;17.10;73.03
43420;BME280;29017;51.514;-0.178;2023-08-06T08:22:43;101192.09;;;17.11;71.83
43420;BME280;29017;51.514;-0.178;2023-08-06T08:25:10;101190.00;;;17.06;70.10
43420;BME280;29017;51.514;-0.178;2023-08-06T08:27:37;101192.72;;;16.98;70.62
43420;BME280;29017;51.514;-0.178;2023-08-06T08:30:04;101188.53;;;16.89;71.05
43420;BME280;29017;51.514;-0.178;2023-08-06T08:32:32;101186.06;;;16.88;69.84
43420;BME280;29017;51.514;-0.178;2023-08-06T08:34:59;101189.81;;;16.79;70.88
43420;BME280;29017;51.514;-0.178;2023-08-06T08:37:26;101192.66;;;16.77;71.59
43420;BME280;29017;51.514;-0.178;2023-08-06T08:39:53;101194.88;;;16.74;71.78
43420;BME280;29017;51.514;-0.178;2023-08-06T08:42:20;101194.03;;;16.73;71.66
43420;BME280;29017;51.514;-0.178;2023-08-06T08:44:48;101201.63;;;16.76;70.84
43420;BME280;29017;51.514;-0.178;2023-08-06T08:47:15;101194.47;;;16.77;71.38
43420;BME280;29017;51.514;-0.178;2023-08-06T08:49:43;101192.47;;;16.79;71.18
43420;BME280;29017;51.514;-0.178;2023-08-06T08:52:11;101193.13;;;16.81;71.31
43420;BME280;29017;51.514;-0.178;2023-08-06T08:54:40;101196.13;;;16.78;72.00
43420;BME280;29017;51.514;-0.178;2023-08-06T08:57:08;101199.44;;;16.80;72.27
43420;BME280;29017;51.514;-0.178;2023-08-06T08:59:35;101194.13;;;16.80;71.49
43420;BME280;29017;51.514;-0.178;2023-08-06T09:02:02;101197.50;;;16.88;71.24
43420;BME280;29017;51.514;-0.178;2023-08-06T09:04:30;101210.50;;;16.98;68.95
43420;BME280;29017;51.514;-0.178;2023-08-06T09:07:00;101203.75;;;16.95;68.91
43420;BME280;29017;51.514;-0.178;2023-08-06T09:09:31;101197.88;;;17.00;69.82
43420;BME280;29017;51.514;-0.178;2023-08-06T09:12:01;101192.91;;;17.12;68.16
43420;BME280;29017;51.514;-0.178;2023-08-06T09:14:29;101194.63;;;17.19;68.28
43420;BME280;29017;51.514;-0.178;2023-08-06T09:16:56;101202.22;;;17.22;68.77
43420;BME280;29017;51.514;-0.178;2023-08-06T09:19:27;101209.28;;;17.30;66.53
43420;BME280;29017;51.514;-0.178;2023-08-06T09:21:56;101204.88;;;17.37;66.27
43420;BME280;29017;51.514;-0.178;2023-08-06T09:24:23;101212.53;;;17.46;65.96
43420;BME280;29017;51.514;-0.178;2023-08-06T09:26:50;101219.50;;;17.47;66.34
43420;BME280;29017;51.514;-0.178;2023-08-06T09:29:17;101215.00;;;17.48;63.83
43420;BME280;29017;51.514;-0.178;2023-08-06T09:31:46;101219.13;;;17.50;65.77
43420;BME280;29017;51.514;-0.178;2023-08-06T09:34:18;101224.06;;;17.53;68.10
43420;BME280;29017;51.514;-0.178;2023-08-06T09:36:53;101223.06;;;17.54;66.53
43420;BME280;29017;51.514;-0.178;2023-08-06T09:39:30;101228.09;;;17.64;67.68
43420;BME280;29017;51.514;-0.178;2023-08-06T09:41:58;101241.06;;;17.67;66.54
43420;BME280;29017;51.514;-0.178;2023-08-06T09:44:27;101232.69;;;17.70;65.56
43420;BME280;29017;51.514;-0.178;2023-08-06T09:46:59;101232.75;;;17.77;67.00
43420;BME280;29017;51.514;-0.178;2023-08-06T09:49:28;101224.56;;;17.78;65.95
43420;BME280;29017;51.514;-0.178;2023-08-06T09:52:11;101229.53;;;17.81;67.44
43420;BME280;29017;51.514;-0.178;2023-08-06T09:54:38;101235.53;;;17.90;65.57
43420;BME280;29017;51.514;-0.178;2023-08-06T09:57:06;101241.09;;;17.95;66.37
43420;BME280;29017;51.514;-0.178;2023-08-06T09:59:33;101236.88;;;18.01;68.54
43420;BME280;29017;51.514;-0.178;2023-08-06T10:02:01;101234.84;;;18.03;64.66
43420;BME280;29017;51.514;-0.178;2023-08-06T10:04:29;101244.03;;;18.00;64.95
43420;BME280;29017;51.514;-0.178;2023-08-06T10:07:07;101237.94;;;18.06;63.86
43420;BME280;29017;51.514;-0.178;2023-08-06T10:09:34;101241.63;;;18.05;63.95
43420;BME280;29017;51.514;-0.178;2023-08-06T10:12:01;101247.94;;;18.04;65.11
43420;BME280;29017;51.514;-0.178;2023-08-06T10:14:32;101236.53;;;18.10;66.30
43420;BME280;29017;51.514;-0.178;2023-08-06T10:17:00;101245.22;;;18.19;64.77
43420;BME280;29017;51.514;-0.178;2023-08-06T10:19:29;101241.94;;;18.17;65.66
43420;BME280;29017;51.514;-0.178;2023-08-06T10:22:15;101247.00;;;18.12;65.83
43420;BME280;29017;51.514;-0.178;2023-08-06T10:24:49;101251.31;;;18.13;66.91
43420;BME280;29017;51.514;-0.178;2023-08-06T10:27:30;101250.53;;;18.19;67.57
43420;BME280;29017;51.514;-0.178;2023-08-06T10:30:27;101255.94;;;18.25;68.83
43420;BME280;29017;51.514;-0.178;2023-08-06T10:32:57;101259.25;;;18.27;67.43
43420;BME280;29017;51.514;-0.178;2023-08-06T10:35:27;101244.09;;;18.34;67.89
43420;BME280;29017;51.514;-0.178;2023-08-06T10:40:39;101270.66;;;18.49;65.16
43420;BME280;29017;51.514;-0.178;2023-08-06T10:43:07;101260.97;;;18.42;65.67
43420;BME280;29017;51.514;-0.178;2023-08-06T10:45:36;101261.38;;;18.38;66.11
43420;BME280;29017;51.514;-0.178;2023-08-06T10:48:04;101265.44;;;18.34;66.35
43420;BME280;29017;51.514;-0.178;2023-08-06T10:50:32;101260.06;;;18.28;67.08
43420;BME280;29017;51.514;-0.178;2023-08-06T10:53:04;101264.31;;;18.22;69.08
43420;BME280;29017;51.514;-0.178;2023-08-06T10:55:32;101263.06;;;18.18;69.67
43420;BME280;29017;51.514;-0.178;2023-08-06T10:58:08;101265.25;;;18.15;69.55
43420;BME280;29017;51.514;-0.178;2023-08-06T11:00:35;101259.69;;;18.10;69.58
43420;BME280;29017;51.514;-0.178;2023-08-06T11:03:03;101262.28;;;18.03;70.79
43420;BME280;29017;51.514;-0.178;2023-08-06T11:05:31;101257.34;;;18.00;70.94
43420;BME280;29017;51.514;-0.178;2023-08-06T11:08:23;101260.66;;;18.02;70.60
43420;BME280;29017;51.514;-0.178;2023-08-06T11:10:50;101259.44;;;18.05;70.65
43420;BME280;29017;51.514;-0.178;2023-08-06T11:13:29;101261.72;;;18.08;70.80
43420;BME280;29017;51.514;-0.178;2023-08-06T11:15:58;101261.72;;;18.08;71.78
43420;BME280;29017;51.514;-0.178;2023-08-06T11:18:25;101266.66;;;18.11;72.54
43420;BME280;29017;51.514;-0.178;2023-08-06T11:20:53;101263.00;;;18.12;72.01
43420;BME280;29017;51.514;-0.178;2023-08-06T11:23:20;101267.31;;;18.13;72.10
43420;BME280;29017;51.514;-0.178;2023-08-06T11:25:47;101276.75;;;18.15;73.16
43420;BME280;29017;51.514;-0.178;2023-08-06T11:28:15;101275.16;;;18.21;71.92
43420;BME280;29017;51.514;-0.178;2023-08-06T11:30:42;101282.75;;;18.24;72.09
43420;BME280;29017;51.514;-0.178;2023-08-06T11:33:10;101285.22;;;18.25;71.10
43420;BME280;29017;51.514;-0.178;2023-08-06T11:35:37;101281.75;;;18.25;70.32
43420;BME280;29017;51.514;-0.178;2023-08-06T11:38:06;101277.06;;;18.27;70.33
43420;BME280;29017;51.514;-0.178;2023-08-06T11:40:35;101273.00;;;18.31;71.04
43420;BME280;29017;51.514;-0.178;2023-08-06T11:43:02;101273.06;;;18.37;71.14
43420;BME280;29017;51.514;-0.178;2023-08-06T11:45:30;101273.72;;;18.46;71.80
43420;BME280;29017;51.514;-0.178;2023-08-06T11:48:04;101273.31;;;18.49;71.58
43420;BME280;29017;51.514;-0.178;2023-08-06T11:50:36;101275.06;;;18.57;72.00
43420;BME280;29017;51.514;-0.178;2023-08-06T11:53:04;101274.13;;;18.71;72.33
43420;BME280;29017;51.514;-0.178;2023-08-06T11:55:32;101270.47;;;18.72;70.65
43420;BME280;29017;51.514;-0.178;2023-08-06T11:58:06;101285.44;;;18.73;70.91
43420;BME280;29017;51.514;-0.178;2023-08-06T12:00:36;101270.28;;;18.73;70.53
43420;BME280;29017;51.514;-0.178;2023-08-06T12:03:04;101275.97;;;18.70;70.04
43420;BME280;29017;51.514;-0.178;2023-08-06T12:05:32;101277.00;;;18.69;70.58
43420;BME280;29017;51.514;-0.178;2023-08-06T12:08:08;101269.41;;;18.66;71.82
43420;BME280;29017;51.514;-0.178;2023-08-06T12:10:35;101277.34;;;18.60;71.24
43420;BME280;29017;51.514;-0.178;2023-08-06T12:13:03;101271.41;;;18.58;71.10
43420;BME280;29017;51.514;-0.178;2023-08-06T12:15:30;101270.94;;;18.54;70.90
43420;BME280;29017;51.514;-0.178;2023-08-06T12:18:04;101265.53;;;18.48;71.59
43420;BME280;29017;51.514;-0.178;2023-08-06T12:20:32;101276.78;;;18.43;72.43
43420;BME280;29017;51.514;-0.178;2023-08-06T12:23:00;101277.41;;;18.45;72.71
43420;BME280;29017;51.514;-0.178;2023-08-06T12:25:27;101280.47;;;18.42;72.81
43420;BME280;29017;51.514;-0.178;2023-08-06T12:28:11;101279.44;;;18.43;71.44
43420;BME280;29017;51.514;-0.178;2023-08-06T12:30:39;101276.97;;;18.42;71.50
43420;BME280;29017;51.514;-0.178;2023-08-06T12:33:08;101278.81;;;18.41;71.74
43420;BME280;29017;51.514;-0.178;2023-08-06T12:35:36;101282.69;;;18.38;72.50
43420;BME280;29017;51.514;-0.178;2023-08-06T12:38:05;101283.13;;;18.42;72.75
43420;BME280;29017;51.514;-0.178;2023-08-06T12:40:32;101281.06;;;18.44;73.09
43420;BME280;29017;51.514;-0.178;2023-08-06T12:43:05;101275.56;;;18.46;71.93
43420;BME280;29017;51.514;-0.178;2023-08-06T12:45:32;101280.47;;;18.42;71.73
43420;BME280;29017;51.514;-0.178;2023-08-06T12:48:08;101280.31;;;18.50;70.58
43420;BME280;29017;51.514;-0.178;2023-08-06T12:50:35;101280.31;;;18.50;70.42
43420;BME280;29017;51.514;-0.178;2023-08-06T12:53:02;101281.31;;;18.49;70.20
43420;BME280;29017;51.514;-0.178;2023-08-06T12:55:31;101280.06;;;18.45;70.84
43420;BME280;29017;51.514;-0.178;2023-08-06T12:57:59;101292.97;;;18.42;71.96
43420;BME280;29017;51.514;-0.178;2023-08-06T13:00:27;101285.16;;;18.40;74.30